Saturday, August 30, 2014
14:17 UTC
  |  Log In   |  Register Free
Airport Search:

Lonesome Pine Airport
(KLNP)

Lonesome Pine Airport Diagram
No Airport Diagram Available

FAA data valid effective July 24, 2014 until September 18, 2014 (unless otherwise noted).

 
 
 
 
 
 
 
 
 
 
 
 
 
 

Current Aviation Weather for Lonesome Pine Airport (KLNP)

The most recent METAR observation for KLNP was updated at: 1355 UTC
METAR Summary (Translated METAR)
KLNP
301355Z AUTO 17007KT 10SM CLR 23/17 A3028 RMK AO2
KVJI
(29.9 nm SE from KLNP)
301355Z AUTO 11006KT 10SM CLR 25/21 A3025 RMK AO2 T02490205
TAF Summary (Translated TAF)
KTRI
(31.3 nm SE from KLNP)
301125Z 3012/3112 VRB03KT P6SM SCT050 BKN250 FM302200 23005KT P6SM VCTS BKN050CB OVC150 FM310600 00000KT P6SM OVC100
  Airport Weather Conditions for KLNP

 Current Weather at LNP
73° F
Fair
South winds at 8.1 mph
LNP NOAA Radar

Pressure: 30.28 in
Humidity: 69%
Wind: South at 8.1 MPH (7 KT)
Dew Point: 62.6°F
Visibility: 10.00 mi


Airport Weather Forecast for KLNP

Translated METAR and TAF for KLNP
Translated METAR for KLNP (1411 UTC 30 August 2014)
found at http://aviationweather.gov/adds/metars/
 
METAR text: KLNP 301355Z AUTO 17007KT 10SM CLR 23/17 A3028 RMK AO2
Conditions at: KLNP (WISE/LONESOME PI, VA, US) observed 1355 UTC 30 August 2014
Temperature: 23.0°C (73°F)
Dewpoint: 17.0°C (63°F) [RH = 69%]
Pressure (altimeter): 30.28 inches Hg (1025.5 mb)
Winds: from the S (170 degrees) at 8 MPH (7 knots; 3.6 m/s)
Visibility: 10 or more miles (16+ km)
Ceiling: at least 12,000 feet AGL
Clouds: sky clear below 12,000 feet AGL
Weather: automated observation with no human augmentation;
there may or may not be significant weather present at this time
Translated TAF for KLNP

There is no translated TAF available for this airport

Find All Airport Services Find A Hotel Find A Rental Car Find A Golf Course Find A Restaurant $100 Hamburger



FBO's on the Field
FBO Company Facility Photos Services Transportation Aviation Fuel Prices: Prices include tax
Catering Weather Repair Courtesy Rental Type 100LL JetA JetA+ MOGAS 8087
 
Lonesome Pine Airport

This FBO has not yet been rated
FS:Shell
Last Updated: Aug-20
Login to update fuel prices
SS:
Contact Lonesome Pine AirportMore FBO Information
 
Add another FBO Facility Photos Catering Weather Repair Courtesy Rental Type 100LL JetA JetA+ MOGAS 8087
Services Transportation Aviation Fuel Prices: Prices include tax


GlobalAir.com Airport Resource Center model-print
model-print
model-print
model-print